Aviation Digital Data Service (ADDS)

Output produced by METARs form (0315 UTC 23 June 2017)
found at http://aviationweather.gov/adds/metars/
 
KMSS 222331Z 2300/2324 22005KT P6SM OVC090 
     FM230500 14004KT 4SM -SHRA BR OVC035 
     FM231300 21012G22KT P6SM VCSH OVC025